Time;durP1;ratioP1;P1;durP2;ratioP2;P2;SDS_P1;SDS_P2;PMS_P1;PMS_P2;Temp;Humidity;BMP_temperature;BMP_pressure;BME280_temperature;BME280_humidity;BME280_pressure;Samples;Min_cycle;Max_cycle;Signal;HPM_P1;HPM_P2
2022/09/06 00:00:30;;;;;;;1957.20;454.10;;;15.00;99.90;;;;;;4116636;28;20194;-78
2022/09/06 00:02:32;;;;;;;1949.63;711.10;;;15.00;99.90;;;;;;4133529;28;20194;-78
2022/09/06 00:04:32;;;;;;;1999.90;760.10;;;15.00;99.90;;;;;;4117091;28;20563;-76
2022/09/06 00:06:33;;;;;;;1999.90;814.20;;;15.00;99.90;;;;;;4136081;28;20249;-78
2022/09/06 00:08:34;;;;;;;1999.90;999.90;;;14.90;99.90;;;;;;4115828;28;20195;-78
2022/09/06 00:10:36;;;;;;;1999.90;999.90;;;14.90;99.90;;;;;;4135944;28;20198;-77
2022/09/06 00:12:36;;;;;;;1999.90;999.90;;;14.90;99.90;;;;;;4114862;28;20258;-78
2022/09/06 00:14:37;;;;;;;1999.90;356.33;;;14.90;99.90;;;;;;4115503;28;20286;-78
2022/09/06 00:16:39;;;;;;;1999.90;305.87;;;14.80;99.90;;;;;;4132973;28;20842;-77
2022/09/06 00:18:41;;;;;;;1999.90;787.40;;;14.70;99.90;;;;;;4115385;28;20624;-77
2022/09/06 00:20:41;;;;;;;1999.90;999.90;;;14.70;99.90;;;;;;4132830;28;20182;-77
2022/09/06 00:22:42;;;;;;;1999.90;785.73;;;14.70;99.90;;;;;;4132563;28;20857;-78
2022/09/06 00:24:42;;;;;;;1999.90;999.90;;;14.80;99.90;;;;;;4109218;28;20636;-78
2022/09/06 00:26:43;;;;;;;1999.90;999.90;;;14.80;99.90;;;;;;4116470;28;20187;-78
2022/09/06 00:28:44;;;;;;;1999.90;731.27;;;14.80;99.90;;;;;;4099124;29;20279;-78
2022/09/06 00:30:45;;;;;;;1999.90;247.10;;;14.80;99.90;;;;;;4116497;28;20183;-79
2022/09/06 00:32:45;;;;;;;1999.90;999.90;;;14.80;99.90;;;;;;4115671;28;20969;-77
2022/09/06 00:34:46;;;;;;;1999.90;802.83;;;14.80;99.90;;;;;;4098996;29;20678;-78
2022/09/06 00:36:46;;;;;;;1999.90;999.90;;;14.70;99.90;;;;;;4116215;28;20214;-78
2022/09/06 00:38:47;;;;;;;1999.90;706.90;;;14.80;99.90;;;;;;4116038;28;20246;-77
2022/09/06 00:40:47;;;;;;;1999.90;999.90;;;14.70;99.90;;;;;;4115991;28;20183;-78
2022/09/06 00:42:48;;;;;;;1999.90;531.33;;;14.70;99.90;;;;;;4115399;28;20238;-78
2022/09/06 00:44:49;;;;;;;1999.90;817.33;;;14.60;99.90;;;;;;4116064;28;20712;-79
2022/09/06 00:46:52;;;;;;;1999.90;999.90;;;14.60;99.90;;;;;;4115878;28;20556;-78
2022/09/06 00:49:03;;;;;;;1999.90;786.13;;;14.60;99.90;;;;;;4115849;28;20194;-79
2022/09/06 00:51:08;;;;;;;1999.90;413.90;;;14.60;99.90;;;;;;4115983;28;20202;-78
2022/09/06 00:53:08;;;;;;;1999.90;276.90;;;14.60;99.90;;;;;;4097676;29;20212;-79
2022/09/06 00:55:09;;;;;;;1999.90;999.90;;;14.70;99.90;;;;;;4115909;28;20726;-78
2022/09/06 00:57:10;;;;;;;1999.90;522.70;;;14.70;99.90;;;;;;4115686;28;20662;-78
2022/09/06 00:59:11;;;;;;;1999.90;769.70;;;14.70;99.90;;;;;;4115755;28;20217;-79
2022/09/06 01:01:11;;;;;;;1999.90;999.90;;;14.70;99.90;;;;;;4115873;28;20641;-77
2022/09/06 01:03:13;;;;;;;1999.90;733.90;;;14.70;99.90;;;;;;4115042;28;20273;-78
2022/09/06 01:05:14;;;;;;;1999.90;715.17;;;14.80;99.90;;;;;;4098523;29;20774;-78
2022/09/06 01:07:30;;;;;;;1999.90;535.53;;;14.80;99.90;;;;;;4114881;28;20179;-78
2022/09/06 01:10:08;;;;;;;1999.90;754.50;;;14.80;99.90;;;;;;4115594;28;20651;-78
2022/09/06 01:12:17;;;;;;;1999.90;812.27;;;14.70;99.90;;;;;;4114992;28;20237;-78
2022/09/06 01:14:37;;;;;;;1999.90;343.13;;;14.70;99.90;;;;;;4115785;28;20171;-78
2022/09/06 01:17:06;;;;;;;1999.90;762.60;;;14.70;99.90;;;;;;4098467;29;20195;-78
2022/09/06 01:19:21;;;;;;;1999.90;635.30;;;14.60;99.90;;;;;;4081947;28;20242;-78
2022/09/06 01:21:48;;;;;;;1999.90;484.00;;;14.60;99.90;;;;;;4115602;28;20186;-78
2022/09/06 01:24:15;;;;;;;1999.90;428.33;;;14.60;99.90;;;;;;4098283;29;20216;-78
2022/09/06 01:27:06;;;;;;;1999.90;918.17;;;14.60;99.90;;;;;;4116079;28;20249;-78
2022/09/06 01:29:33;;;;;;;1999.90;777.17;;;14.70;99.90;;;;;;4082251;28;20674;-78
2022/09/06 01:31:43;;;;;;;1999.90;999.90;;;14.60;99.90;;;;;;4076516;29;20299;-78
2022/09/06 01:34:02;;;;;;;1999.90;781.97;;;14.50;99.90;;;;;;4097643;29;20211;-78
2022/09/06 01:36:12;;;;;;;1999.90;584.27;;;14.50;99.90;;;;;;4115222;28;20238;-79
2022/09/06 01:38:14;;;;;;;1999.90;457.03;;;14.40;99.90;;;;;;4097934;29;20290;-79
2022/09/06 01:40:15;;;;;;;1999.90;978.67;;;14.40;99.90;;;;;;4115147;28;20720;-78
2022/09/06 01:42:21;;;;;;;1999.90;999.90;;;14.30;99.90;;;;;;4097230;29;20219;-78
2022/09/06 01:44:24;;;;;;;1999.90;486.23;;;14.30;99.90;;;;;;4115309;28;20953;-78
2022/09/06 01:46:38;;;;;;;1999.90;674.87;;;14.30;99.90;;;;;;4115009;28;20203;-78
2022/09/06 01:49:09;;;;;;;1999.90;999.90;;;14.30;99.90;;;;;;4097814;29;20643;-78
2022/09/06 01:51:31;;;;;;;1999.90;825.73;;;14.30;99.90;;;;;;4114853;28;20179;-78
2022/09/06 01:53:59;;;;;;;1999.90;739.40;;;14.30;99.90;;;;;;4114390;28;20206;-79
2022/09/06 01:56:11;;;;;;;1999.90;795.50;;;14.40;99.90;;;;;;4115067;28;20273;-78
2022/09/06 01:58:49;;;;;;;1999.90;597.53;;;14.40;99.90;;;;;;4114804;28;20716;-78
2022/09/06 02:01:02;;;;;;;1999.90;999.90;;;14.30;99.90;;;;;;4114917;28;20654;-78
2022/09/06 02:03:18;;;;;;;1999.90;796.40;;;14.30;99.90;;;;;;4112227;28;20218;-78
2022/09/06 02:05:31;;;;;;;1999.90;833.23;;;14.40;99.90;;;;;;4112791;28;20214;-79
2022/09/06 02:07:33;;;;;;;1999.90;867.27;;;14.40;99.90;;;;;;4125040;28;20200;-78
2022/09/06 02:09:39;;;;;;;1999.90;928.10;;;14.40;99.90;;;;;;4130786;28;20182;-79
2022/09/06 02:11:51;;;;;;;1999.90;593.23;;;14.40;99.90;;;;;;4130676;28;20541;-78
2022/09/06 02:14:03;;;;;;;1999.90;372.03;;;14.30;99.90;;;;;;4130774;28;20210;-78
2022/09/06 02:16:06;;;;;;;1999.90;999.90;;;14.20;99.90;;;;;;4130775;28;20182;-78
2022/09/06 02:18:15;;;;;;;1999.90;618.13;;;14.20;99.90;;;;;;4113152;28;20581;-78
2022/09/06 02:20:19;;;;;;;1999.90;371.57;;;14.20;99.90;;;;;;4118924;28;20198;-78
2022/09/06 02:22:23;;;;;;;1875.40;790.70;;;14.10;99.90;;;;;;4145934;28;20206;-78
2022/09/06 02:24:29;;;;;;;1999.90;999.90;;;14.20;99.90;;;;;;4146632;28;20193;-78
2022/09/06 02:26:34;;;;;;;1999.90;999.90;;;14.10;99.90;;;;;;4146752;28;20264;-78
2022/09/06 02:28:35;;;;;;;1999.90;999.90;;;14.10;99.90;;;;;;4123452;28;20262;-78
2022/09/06 02:30:40;;;;;;;1999.90;593.87;;;14.10;99.90;;;;;;4130352;28;20202;-78
2022/09/06 02:32:52;;;;;;;1999.90;763.87;;;14.20;99.90;;;;;;4112626;28;20217;-78
2022/09/06 02:34:55;;;;;;;1999.90;999.90;;;14.20;99.90;;;;;;4113071;28;20201;-78
2022/09/06 02:36:56;;;;;;;1999.90;999.90;;;14.20;99.90;;;;;;4130524;28;20190;-77
2022/09/06 02:39:00;;;;;;;1999.90;718.20;;;14.20;99.90;;;;;;4130458;28;20202;-78
2022/09/06 02:41:03;;;;;;;1999.90;999.90;;;14.30;99.90;;;;;;4112905;28;20206;-78
2022/09/06 02:43:04;;;;;;;1931.77;771.33;;;14.40;99.90;;;;;;4112258;28;20227;-78
2022/09/06 02:45:05;;;;;;;1999.90;543.83;;;14.40;99.90;;;;;;4130272;28;20190;-78
2022/09/06 02:47:06;;;;;;;1999.90;999.90;;;14.50;99.90;;;;;;4130412;28;20187;-78
2022/09/06 02:49:06;;;;;;;1999.90;311.67;;;14.60;99.90;;;;;;4112811;28;20267;-78
2022/09/06 02:51:08;;;;;;;1988.33;495.23;;;14.70;99.90;;;;;;4130055;28;20241;-78
2022/09/06 02:53:11;;;;;;;1999.90;692.97;;;14.80;99.90;;;;;;4112087;28;20559;-78
2022/09/06 02:55:12;;;;;;;1999.90;534.37;;;14.80;99.90;;;;;;4112628;28;20712;-78
2022/09/06 02:57:13;;;;;;;1999.90;999.90;;;14.90;99.90;;;;;;4128572;28;20190;-78
2022/09/06 02:59:13;;;;;;;1999.90;552.10;;;15.00;99.90;;;;;;4129995;28;20579;-78
2022/09/06 03:01:14;;;;;;;1999.90;999.90;;;15.10;99.90;;;;;;4129964;28;20178;-78
2022/09/06 03:03:14;;;;;;;1999.90;999.90;;;15.10;99.90;;;;;;4111767;28;20221;-78
2022/09/06 03:05:15;;;;;;;1999.90;999.90;;;15.20;99.90;;;;;;4129943;28;20607;-78
2022/09/06 03:07:16;;;;;;;1999.90;756.27;;;15.20;99.90;;;;;;4129974;28;20231;-78
2022/09/06 03:09:17;;;;;;;1999.90;587.93;;;15.10;99.90;;;;;;4112511;28;20194;-78
2022/09/06 03:11:17;;;;;;;1999.90;597.30;;;15.10;99.90;;;;;;4129796;28;20182;-79
2022/09/06 03:13:18;;;;;;;1999.90;525.53;;;15.00;99.90;;;;;;4129444;28;20198;-78
2022/09/06 03:15:19;;;;;;;1999.90;794.27;;;14.90;99.90;;;;;;4129948;28;20186;-78
2022/09/06 03:17:19;;;;;;;1999.90;794.00;;;14.80;99.90;;;;;;4130020;28;20190;-78
2022/09/06 03:19:20;;;;;;;1999.90;999.90;;;14.70;99.90;;;;;;4129600;28;20574;-78
2022/09/06 03:21:21;;;;;;;1999.90;999.90;;;14.60;99.90;;;;;;4130031;28;20183;-78
2022/09/06 03:23:23;;;;;;;1999.90;643.03;;;14.60;99.90;;;;;;4111593;28;20247;-78
2022/09/06 03:25:24;;;;;;;1999.90;999.90;;;14.70;99.90;;;;;;4129627;28;20645;-79
2022/09/06 03:27:25;;;;;;;1999.90;628.87;;;14.60;99.90;;;;;;4129642;28;20240;-78
2022/09/06 03:29:25;;;;;;;1999.90;585.67;;;14.70;99.90;;;;;;4129578;28;20657;-78
2022/09/06 03:31:26;;;;;;;1999.90;365.47;;;14.70;99.90;;;;;;4129498;28;20191;-78
2022/09/06 03:33:27;;;;;;;1999.90;787.63;;;14.80;99.90;;;;;;4128986;28;20254;-78
2022/09/06 03:35:27;;;;;;;1999.90;707.93;;;14.80;99.90;;;;;;4129642;28;20190;-78
2022/09/06 03:37:28;;;;;;;1999.90;999.90;;;14.80;99.90;;;;;;4129727;28;20182;-78
2022/09/06 03:39:28;;;;;;;1999.90;234.20;;;14.80;99.90;;;;;;4129599;28;20265;-78
2022/09/06 03:41:29;;;;;;;1999.90;553.00;;;14.70;99.90;;;;;;4129560;28;20182;-78
2022/09/06 03:43:30;;;;;;;1999.90;999.90;;;14.70;99.90;;;;;;4128979;28;20292;-77
2022/09/06 03:45:31;;;;;;;1999.90;999.90;;;14.60;99.90;;;;;;4129675;28;20600;-78
2022/09/06 03:47:32;;;;;;;1999.90;388.23;;;14.50;99.90;;;;;;4129658;28;20174;-78
2022/09/06 03:49:32;;;;;;;1999.90;572.50;;;14.40;99.90;;;;;;4129799;28;20281;-78
2022/09/06 03:51:33;;;;;;;1999.90;999.90;;;14.30;99.90;;;;;;4112824;28;20187;-78
2022/09/06 03:53:34;;;;;;;1999.90;999.90;;;14.30;99.90;;;;;;4111945;28;20638;-77
2022/09/06 03:55:34;;;;;;;1999.90;763.47;;;14.40;99.90;;;;;;4129656;28;20178;-78
2022/09/06 03:57:35;;;;;;;1999.90;568.23;;;14.30;99.90;;;;;;4112097;28;20187;-78
2022/09/06 03:59:35;;;;;;;1999.90;805.73;;;14.30;99.90;;;;;;4129557;28;20182;-78
2022/09/06 04:01:36;;;;;;;1999.90;999.90;;;14.30;99.90;;;;;;4112056;28;21114;-78
2022/09/06 04:03:37;;;;;;;1999.90;528.67;;;14.40;99.90;;;;;;4131868;28;20236;-79
2022/09/06 04:05:38;;;;;;;1999.90;747.83;;;14.40;99.90;;;;;;4145595;28;20236;-78
2022/09/06 04:07:39;;;;;;;1999.90;999.90;;;14.40;99.90;;;;;;4145608;28;20268;-78
2022/09/06 04:09:39;;;;;;;1999.90;999.90;;;14.40;99.90;;;;;;4128185;28;20187;-78
2022/09/06 04:11:41;;;;;;;1999.90;558.53;;;14.40;99.90;;;;;;4145396;28;20178;-78
2022/09/06 04:13:42;;;;;;;1918.50;732.03;;;14.40;99.90;;;;;;4141732;28;20621;-77
2022/09/06 04:15:45;;;;;;;1999.90;999.90;;;14.40;99.90;;;;;;4129138;28;20253;-77
2022/09/06 04:17:46;;;;;;;1884.20;716.47;;;14.40;99.90;;;;;;4129084;28;20600;-77
2022/09/06 04:19:47;;;;;;;1999.90;999.90;;;14.40;99.90;;;;;;4129579;28;20190;-78
2022/09/06 04:21:47;;;;;;;1999.90;999.90;;;14.50;99.90;;;;;;4128778;28;20198;-78
2022/09/06 04:23:48;;;;;;;1999.90;543.17;;;14.50;99.90;;;;;;4110517;28;20216;-77
2022/09/06 04:25:51;;;;;;;1999.90;999.90;;;14.40;99.90;;;;;;4114596;28;20183;-77
2022/09/06 04:27:51;;;;;;;1999.90;537.07;;;14.50;99.90;;;;;;4113336;28;20245;-77
2022/09/06 04:29:52;;;;;;;1999.90;273.60;;;14.60;99.90;;;;;;4113492;28;20187;-78
2022/09/06 04:31:52;;;;;;;1836.30;429.23;;;14.50;99.90;;;;;;4095652;29;20206;-77
2022/09/06 04:33:53;;;;;;;1999.90;999.90;;;14.50;99.90;;;;;;4113431;28;20245;-77
2022/09/06 04:35:58;;;;;;;1963.17;284.17;;;14.50;99.90;;;;;;4113285;28;20194;-78
2022/09/06 04:38:00;;;;;;;1999.90;999.90;;;14.40;99.90;;;;;;4113204;28;20207;-77
2022/09/06 04:40:00;;;;;;;1999.90;999.90;;;14.40;99.90;;;;;;4113435;28;20189;-77
2022/09/06 04:42:01;;;;;;;1999.90;999.90;;;14.40;99.90;;;;;;4112889;28;21049;-76
2022/09/06 04:44:02;;;;;;;1999.90;816.77;;;14.40;99.90;;;;;;4098594;29;20192;-78
2022/09/06 04:46:18;;;;;;;1999.90;562.77;;;14.40;99.90;;;;;;4116287;28;20194;-77
2022/09/06 04:48:19;;;;;;;1999.90;999.90;;;14.40;99.90;;;;;;4116312;28;20178;-77
2022/09/06 04:50:19;;;;;;;1999.90;403.50;;;14.40;99.90;;;;;;4116153;28;20237;-77
2022/09/06 04:52:20;;;;;;;1999.90;419.17;;;14.40;99.90;;;;;;4115688;28;20213;-77
2022/09/06 04:54:20;;;;;;;1999.90;999.90;;;14.40;99.90;;;;;;4116191;28;20187;-77
2022/09/06 04:56:23;;;;;;;1999.90;999.90;;;14.40;99.90;;;;;;4116161;28;20179;-77
2022/09/06 04:58:24;;;;;;;1999.90;838.00;;;14.30;99.90;;;;;;4115952;28;20203;-77
2022/09/06 05:00:26;;;;;;;1999.90;999.90;;;14.20;99.90;;;;;;4115926;28;20258;-77
2022/09/06 05:02:26;;;;;;;1999.90;999.90;;;14.20;99.90;;;;;;4115214;28;20201;-77
2022/09/06 05:04:27;;;;;;;1999.90;999.90;;;14.30;99.90;;;;;;4115723;28;20226;-77
2022/09/06 05:06:27;;;;;;;1835.10;467.33;;;14.30;99.90;;;;;;4098793;29;20254;-77
2022/09/06 05:08:28;;;;;;;1999.90;770.37;;;14.20;99.90;;;;;;4115843;28;20186;-78
2022/09/06 05:10:28;;;;;;;1999.90;999.90;;;14.20;99.90;;;;;;4115927;28;20210;-77
2022/09/06 05:12:29;;;;;;;1893.10;755.17;;;14.20;99.90;;;;;;4115161;28;20697;-77
2022/09/06 05:14:29;;;;;;;1999.90;999.90;;;14.30;99.90;;;;;;4115997;28;20187;-77
2022/09/06 05:16:30;;;;;;;1999.90;999.90;;;14.30;99.90;;;;;;4098337;29;20191;-77
2022/09/06 05:18:31;;;;;;;1999.90;999.90;;;14.30;99.90;;;;;;4114282;28;20608;-78
2022/09/06 05:20:31;;;;;;;1999.90;599.13;;;14.30;99.90;;;;;;4098536;29;20180;-78
2022/09/06 05:22:32;;;;;;;1999.90;999.90;;;14.30;99.90;;;;;;4097867;29;20207;-77
2022/09/06 05:24:32;;;;;;;1999.90;999.90;;;14.40;99.90;;;;;;4115640;28;20176;-78
2022/09/06 05:26:33;;;;;;;1999.90;999.90;;;14.40;99.90;;;;;;4115635;28;20265;-77
2022/09/06 05:28:34;;;;;;;1999.90;593.10;;;14.50;99.90;;;;;;4115636;28;20191;-77
2022/09/06 05:30:34;;;;;;;1999.90;505.17;;;14.50;99.90;;;;;;4115876;28;20270;-77
2022/09/06 05:32:35;;;;;;;1999.90;606.07;;;14.50;99.90;;;;;;4115150;28;20250;-77
2022/09/06 05:34:35;;;;;;;1770.30;167.87;;;14.50;99.90;;;;;;4116149;28;20277;-78
2022/09/06 05:36:37;;;;;;;1999.90;828.63;;;14.50;99.90;;;;;;4098492;29;20203;-77
2022/09/06 05:38:38;;;;;;;1999.90;999.90;;;14.60;99.90;;;;;;4115730;28;20215;-78
2022/09/06 05:40:38;;;;;;;1999.90;999.90;;;14.70;99.90;;;;;;4117757;28;20245;-78
2022/09/06 05:42:39;;;;;;;1999.90;999.90;;;14.80;99.90;;;;;;4118392;28;20203;-78
2022/09/06 05:44:40;;;;;;;1999.90;999.90;;;14.90;99.90;;;;;;4119653;28;20186;-77
2022/09/06 05:46:44;;;;;;;1999.90;999.90;;;15.00;99.90;;;;;;4119569;28;20172;-77
2022/09/06 05:49:06;;;;;;;1999.90;999.90;;;15.10;99.90;;;;;;4119761;28;20310;-78
2022/09/06 05:51:11;;;;;;;1999.90;999.90;;;15.20;99.90;;;;;;4119957;28;20353;-77
2022/09/06 05:53:11;;;;;;;1898.80;465.43;;;15.30;99.90;;;;;;4105288;28;20207;-78
2022/09/06 05:55:12;;;;;;;1999.90;381.33;;;15.40;99.90;;;;;;4118519;28;20242;-77
2022/09/06 05:57:12;;;;;;;1999.90;843.93;;;15.50;99.90;;;;;;4102122;29;20195;-77
2022/09/06 05:59:13;;;;;;;1999.90;784.37;;;15.70;99.90;;;;;;4128086;28;20206;-78
2022/09/06 06:01:21;;;;;;;1999.90;731.30;;;15.90;99.90;;;;;;4118160;28;20191;-78
2022/09/06 06:03:21;;;;;;;1999.90;999.90;;;16.00;99.10;;;;;;4130688;28;20271;-77
2022/09/06 06:05:22;;;;;;;1999.90;999.90;;;16.00;99.60;;;;;;4131104;28;20189;-78
2022/09/06 06:07:22;;;;;;;1999.90;999.90;;;15.90;99.90;;;;;;4113827;28;20201;-77
2022/09/06 06:09:23;;;;;;;1857.77;441.03;;;16.10;99.90;;;;;;4131071;28;20864;-77
2022/09/06 06:11:25;;;;;;;1999.90;999.90;;;16.20;99.20;;;;;;4113569;28;20206;-75
2022/09/06 06:13:30;;;;;;;1999.90;768.43;;;16.30;98.60;;;;;;4097408;29;20847;-77
2022/09/06 06:15:31;;;;;;;1999.90;746.23;;;16.60;98.50;;;;;;4120744;28;20252;-77
2022/09/06 06:17:31;;;;;;;1999.90;794.00;;;16.70;98.30;;;;;;4130761;28;20194;-76
2022/09/06 06:19:32;;;;;;;1999.90;764.23;;;16.80;98.20;;;;;;4113411;28;20233;-77
2022/09/06 06:21:33;;;;;;;1999.90;999.90;;;17.00;98.30;;;;;;4130739;28;20194;-77
2022/09/06 06:23:34;;;;;;;1999.90;838.97;;;17.10;97.80;;;;;;4130339;28;20206;-79
2022/09/06 06:25:34;;;;;;;1999.90;332.23;;;17.20;97.50;;;;;;4130702;28;20189;-77
2022/09/06 06:27:36;;;;;;;1999.90;999.90;;;17.40;98.10;;;;;;4113296;28;20210;-77
2022/09/06 06:29:37;;;;;;;1999.90;556.10;;;17.50;97.50;;;;;;4130587;28;20191;-79
2022/09/06 06:31:37;;;;;;;1809.50;159.57;;;17.70;97.20;;;;;;4129582;28;20679;-76
2022/09/06 06:33:38;;;;;;;1999.90;720.83;;;18.00;97.60;;;;;;4112115;28;20218;-77
2022/09/06 06:35:39;;;;;;;1999.90;353.13;;;18.30;97.70;;;;;;4130407;28;20191;-77
2022/09/06 06:37:41;;;;;;;1999.90;749.43;;;18.70;97.00;;;;;;4130724;28;20192;-77
2022/09/06 06:39:41;;;;;;;1999.90;217.10;;;19.10;95.80;;;;;;4130995;28;20665;-77
2022/09/06 06:41:42;;;;;;;1999.90;521.73;;;19.40;95.10;;;;;;4113044;28;20194;-77
2022/09/06 06:43:43;;;;;;;1999.90;931.23;;;19.60;94.40;;;;;;4113046;28;20219;-78
2022/09/06 06:45:48;;;;;;;1999.90;417.83;;;19.90;94.80;;;;;;4130831;28;20190;-77
2022/09/06 06:47:49;;;;;;;1999.90;793.13;;;20.20;94.00;;;;;;4113211;28;20183;-77
2022/09/06 06:49:50;;;;;;;1999.90;999.90;;;20.30;93.70;;;;;;4130680;28;20189;-77
2022/09/06 06:51:51;;;;;;;1999.90;741.37;;;20.50;92.50;;;;;;4129843;28;20181;-80
2022/09/06 06:53:52;;;;;;;1999.90;486.37;;;20.60;91.80;;;;;;4113003;28;20199;-77
2022/09/06 06:55:53;;;;;;;1999.90;499.57;;;20.70;91.80;;;;;;4130352;28;20210;-79
2022/09/06 06:57:53;;;;;;;1999.90;567.97;;;20.90;91.00;;;;;;4112940;28;20250;-79
2022/09/06 06:59:54;;;;;;;1999.90;816.73;;;20.80;91.20;;;;;;4129114;28;20661;-70
2022/09/06 07:01:55;;;;;;;1999.90;644.37;;;20.90;91.30;;;;;;4129286;28;20570;-70
2022/09/06 07:03:56;;;;;;;1999.90;869.30;;;21.00;91.60;;;;;;4130243;28;20594;-72
2022/09/06 07:05:57;;;;;;;1999.90;276.33;;;21.10;91.00;;;;;;4112324;28;20190;-70
2022/09/06 07:07:58;;;;;;;1999.90;757.93;;;21.20;91.40;;;;;;4130389;28;20186;-75
2022/09/06 07:09:58;;;;;;;1999.90;608.73;;;21.40;90.90;;;;;;4096958;29;20623;-75
2022/09/06 07:11:59;;;;;;;1999.90;540.43;;;21.50;89.50;;;;;;4112277;28;20225;-75
2022/09/06 07:14:00;;;;;;;1999.90;775.83;;;21.50;90.00;;;;;;4130086;28;20253;-75
2022/09/06 07:16:17;;;;;;;1999.90;514.40;;;21.70;89.10;;;;;;4130262;28;20607;-75
2022/09/06 07:18:18;;;;;;;1999.90;861.37;;;21.90;88.80;;;;;;4112983;28;20257;-75
2022/09/06 07:20:19;;;;;;;1999.90;489.97;;;21.90;87.70;;;;;;4096690;29;20195;-75
2022/09/06 07:22:20;;;;;;;1999.90;784.93;;;22.10;88.10;;;;;;4112278;28;20733;-75
2022/09/06 07:24:20;;;;;;;1999.90;830.63;;;22.20;88.00;;;;;;4130095;28;20282;-75
2022/09/06 07:26:25;;;;;;;1999.90;876.93;;;22.30;86.10;;;;;;4130172;28;20185;-76
2022/09/06 07:28:26;;;;;;;1999.90;382.37;;;22.40;85.50;;;;;;4097050;28;20894;-75
2022/09/06 07:30:30;;;;;;;1999.90;728.40;;;22.50;85.00;;;;;;4130008;28;20193;-75
2022/09/06 07:32:33;;;;;;;1999.90;656.20;;;22.80;80.60;;;;;;4112452;28;20214;-75
2022/09/06 07:34:36;;;;;;;1999.90;342.60;;;22.70;80.30;;;;;;4113140;28;20191;-75
2022/09/06 07:36:37;;;;;;;1999.90;510.37;;;22.50;82.60;;;;;;4112911;28;20195;-75
2022/09/06 07:38:37;;;;;;;1999.90;444.13;;;22.40;81.30;;;;;;4096602;29;20710;-75
2022/09/06 07:40:38;;;;;;;1999.90;624.60;;;22.70;79.10;;;;;;4129955;28;20178;-75
2022/09/06 07:42:39;;;;;;;1999.90;495.73;;;22.40;79.50;;;;;;4129723;28;20606;-75
2022/09/06 07:44:39;;;;;;;1999.90;281.17;;;22.40;81.40;;;;;;4112864;28;20183;-75
2022/09/06 07:46:40;;;;;;;1999.90;575.27;;;22.50;81.30;;;;;;4129915;28;20189;-76
2022/09/06 07:48:44;;;;;;;1999.90;436.27;;;22.50;78.70;;;;;;4130237;28;20193;-74
2022/09/06 07:50:47;;;;;;;1999.90;804.57;;;22.70;77.60;;;;;;4112357;28;20207;-75
2022/09/06 07:52:47;;;;;;;1999.90;588.90;;;22.80;74.10;;;;;;4145442;28;20217;-76
2022/09/06 07:54:48;;;;;;;1999.90;682.43;;;22.80;76.50;;;;;;4146519;28;20263;-75
2022/09/06 07:56:49;;;;;;;1999.90;395.77;;;22.80;74.20;;;;;;4128566;28;20225;-75
2022/09/06 07:58:51;;;;;;;1999.90;429.57;;;22.90;74.40;;;;;;4128418;28;20216;-75
2022/09/06 08:00:52;;;;;;;1999.90;824.77;;;23.00;74.70;;;;;;4128737;28;20273;-75
2022/09/06 08:02:53;;;;;;;1999.90;448.37;;;23.00;71.80;;;;;;4111728;28;20602;-75
2022/09/06 08:04:55;;;;;;;1999.90;814.80;;;23.10;71.50;;;;;;4128778;28;20720;-75
2022/09/06 08:06:56;;;;;;;1999.90;717.30;;;23.20;69.00;;;;;;4112712;28;20194;-75
2022/09/06 08:08:57;;;;;;;1999.90;448.67;;;23.30;68.70;;;;;;4128644;28;20193;-76
2022/09/06 08:10:58;;;;;;;1999.90;999.90;;;23.40;67.00;;;;;;4112598;28;20195;-75
2022/09/06 08:12:59;;;;;;;1999.90;403.27;;;23.40;68.60;;;;;;4128236;28;20202;-75
2022/09/06 08:14:59;;;;;;;1999.90;351.30;;;23.60;67.90;;;;;;4128540;28;20312;-75
2022/09/06 08:17:01;;;;;;;1999.90;999.90;;;23.70;66.90;;;;;;4129413;28;20657;-75
2022/09/06 08:19:09;;;;;;;1999.90;763.80;;;23.90;66.20;;;;;;4131606;28;20695;-75
2022/09/06 08:21:13;;;;;;;1999.90;487.27;;;23.90;66.50;;;;;;4132207;28;20641;-75
2022/09/06 08:23:14;;;;;;;1999.90;770.10;;;23.70;67.40;;;;;;4114695;28;20234;-75
2022/09/06 08:25:15;;;;;;;1999.90;528.27;;;23.80;67.70;;;;;;4128339;28;20217;-75
2022/09/06 08:27:15;;;;;;;1999.90;364.37;;;23.70;68.10;;;;;;4099504;29;20218;-75
2022/09/06 08:29:17;;;;;;;1999.90;682.83;;;23.40;68.90;;;;;;4083502;29;20670;-75
2022/09/06 08:31:18;;;;;;;1999.90;999.90;;;23.30;67.80;;;;;;4099499;28;20191;-74
2022/09/06 08:33:20;;;;;;;1999.90;999.90;;;23.30;67.80;;;;;;4116309;28;20203;-75
2022/09/06 08:35:21;;;;;;;1999.90;810.80;;;23.20;69.50;;;;;;4099495;28;20192;-75
2022/09/06 08:37:22;;;;;;;1999.90;354.47;;;23.40;68.00;;;;;;4099328;28;20632;-74
2022/09/06 08:39:23;;;;;;;1999.90;579.77;;;23.50;68.30;;;;;;4116546;28;20221;-75
2022/09/06 08:41:33;;;;;;;1999.90;529.93;;;23.30;69.00;;;;;;4116493;28;20191;-74
2022/09/06 08:43:33;;;;;;;1999.90;461.47;;;23.30;68.70;;;;;;4083483;29;20211;-75
2022/09/06 08:45:34;;;;;;;1999.90;496.40;;;22.80;71.10;;;;;;4099289;29;20273;-75
2022/09/06 08:47:35;;;;;;;1999.90;574.80;;;22.50;71.30;;;;;;4099273;29;20188;-75
2022/09/06 08:49:45;;;;;;;1999.90;861.77;;;22.20;72.90;;;;;;4099295;29;20690;-75
2022/09/06 08:52:23;;;;;;;1999.90;533.27;;;22.10;72.80;;;;;;4098613;29;20191;-73
2022/09/06 08:54:55;;;;;;;1999.90;647.83;;;22.10;73.00;;;;;;4099474;29;20215;-75
2022/09/06 08:57:22;;;;;;;1999.90;632.90;;;22.00;74.50;;;;;;4116325;28;20190;-76
2022/09/06 08:59:22;;;;;;;1999.90;931.13;;;21.80;73.80;;;;;;4116352;28;20241;-76
2022/09/06 09:01:31;;;;;;;1999.90;527.73;;;21.50;77.00;;;;;;4116315;28;20701;-77
2022/09/06 09:03:38;;;;;;;1999.90;493.67;;;21.40;78.80;;;;;;4082245;29;20215;-74
2022/09/06 09:05:40;;;;;;;1999.90;465.50;;;21.20;81.30;;;;;;4083179;29;20197;-75
2022/09/06 09:07:51;;;;;;;1999.90;396.17;;;21.10;81.40;;;;;;4098992;29;20180;-74
2022/09/06 09:09:54;;;;;;;1999.90;674.73;;;21.10;81.00;;;;;;4099074;29;20183;-74
2022/09/06 09:11:58;;;;;;;1999.90;525.33;;;20.90;82.30;;;;;;4114220;28;20187;-75
2022/09/06 09:14:07;;;;;;;1999.90;364.60;;;20.90;83.00;;;;;;4098626;29;20203;-74
2022/09/06 09:16:08;;;;;;;1999.90;613.80;;;20.80;86.20;;;;;;4082888;29;20196;-75
2022/09/06 09:18:09;;;;;;;1999.90;584.73;;;20.50;88.90;;;;;;4115962;28;20578;-76
2022/09/06 09:20:10;;;;;;;1999.90;575.07;;;20.30;90.70;;;;;;4098968;29;20187;-74
2022/09/06 09:22:18;;;;;;;1999.90;577.03;;;20.20;92.10;;;;;;4115357;28;20196;-75
2022/09/06 09:24:18;;;;;;;1999.90;530.63;;;20.20;92.60;;;;;;4098706;29;20733;-74
2022/09/06 09:26:21;;;;;;;1999.90;999.90;;;20.20;93.10;;;;;;4114551;28;20270;-74
2022/09/06 09:28:23;;;;;;;1999.90;568.83;;;20.20;92.50;;;;;;4097936;28;20191;-74
2022/09/06 09:30:26;;;;;;;1999.90;741.27;;;20.20;92.30;;;;;;4115711;28;20194;-75
2022/09/06 09:32:44;;;;;;;1999.90;625.40;;;20.30;91.90;;;;;;4097998;29;20722;-76
2022/09/06 09:34:45;;;;;;;1999.90;760.67;;;20.20;90.70;;;;;;4082599;29;20640;-75
2022/09/06 09:36:45;;;;;;;1999.90;734.40;;;20.10;84.00;;;;;;4115646;28;20200;-74
2022/09/06 09:38:51;;;;;;;1999.90;330.53;;;19.90;86.70;;;;;;4098314;29;20235;-74
2022/09/06 09:40:54;;;;;;;1999.90;529.73;;;19.80;87.60;;;;;;4098861;28;20223;-74
2022/09/06 09:43:13;;;;;;;1999.90;849.57;;;19.80;90.70;;;;;;4114912;28;20742;-74
2022/09/06 09:45:24;;;;;;;1999.90;536.17;;;19.60;94.90;;;;;;4115410;28;20175;-74
2022/09/06 09:47:31;;;;;;;1999.90;744.60;;;19.60;96.90;;;;;;4098439;29;20619;-74
2022/09/06 09:49:33;;;;;;;1999.90;716.40;;;19.70;97.00;;;;;;4098523;29;20191;-74
2022/09/06 09:51:44;;;;;;;1999.90;766.43;;;19.80;97.30;;;;;;4107329;28;20571;-74
2022/09/06 09:53:59;;;;;;;1999.90;587.83;;;19.90;97.00;;;;;;4097854;29;20206;-74
2022/09/06 09:56:00;;;;;;;1999.90;770.13;;;20.00;97.60;;;;;;4114148;28;20202;-74
2022/09/06 09:58:01;;;;;;;1999.90;762.13;;;20.10;96.60;;;;;;4114164;28;20729;-74
2022/09/06 10:00:07;;;;;;;1999.90;915.93;;;20.20;97.40;;;;;;4114158;28;20193;-75
2022/09/06 10:02:29;;;;;;;1999.90;675.77;;;20.40;96.10;;;;;;4113896;28;20191;-74
2022/09/06 10:04:44;;;;;;;1999.90;590.70;;;20.60;94.70;;;;;;4114053;28;20278;-74